• Join FlightAware (Why Join?)
  • Login
  • US Flag 
01:17AM EST


 

Airport Tracker/Info


-or-


 

Live Flight TrackerFlight Track Log ✈ AAL1459 ✈ 11-Sep-2013 ✈ KORD - KRNO

Flight Track Log - Related Links

Times and Time Zones

All times are in EDT time to prevent confusion due to time zone crossing. See the AAL1459 flight status page for this flight to view local times or setup timezone preferences in your user account.

Time Position Orientation Groundspeed Altitude Reporting Facility
EDT Latitude Longitude Course Direction KTS MPH feet Rate Location/Type
07:04PM 41.9650 -87.8860 180° South 110 127  Level FlightAware
07:04PM 41.9500 -87.9040 222° Southwest 175 201 1,200 2,700 Climbing FlightAware
07:04PM 41.9440 -87.9120 225° Southwest 174 200 1,700 3,000 Climbing FlightAware
07:05PM 41.9410 -87.9220 248° West 171 197 2,200 2,640 Climbing FlightAware
07:05PM 41.9400 -87.9300 260° West 170 196 2,500 1,800 Climbing FlightAware
07:05PM 41.9400 -87.9350 270° West 173 199 2,600 1,680 Climbing FlightAware
07:05PM 41.9410 -87.9570 274° West 192 221 3,200 1,860 Climbing FlightAware
07:06PM 41.9400 -87.9970 268° West 222 255 4,200 1,980 Climbing FlightAware
07:06PM 41.9380 -88.0260 265° West 239 275 4,900 2,700 Climbing FlightAware
07:06PM 41.9360 -88.0590 265° West 248 285 6,000 3,060 Climbing FlightAware
07:07PM 41.9350 -88.0850 267° West 249 287 6,900 2,880 Climbing FlightAware
07:07PM 41.9370 -88.1310 273° West 256 295 8,300 2,940 Climbing FlightAware
07:08PM 41.9410 -88.1720 277° West 265 305 9,500 2,280 Climbing FlightAware
07:08PM 41.9470 -88.2200 280° West 287 330 10,400 2,520 Climbing FlightAware
07:09PM 41.9530 -88.2760 278° West 285 328 12,100 2,940 Climbing FlightAware
07:09PM 41.9600 -88.3530 277° West 288 331 14,100 2,100 Climbing FlightAware
07:10PM 41.9750 -88.4170 288° West 320 368 14,900 1,140 Climbing FlightAware
07:10PM 41.9950 -88.4800 293° West 355 409 15,400 1,440 Climbing FlightAware
07:11PM 42.0190 -88.5490 295° West 367 422 16,500 2,100 Climbing FlightAware
07:12PM 42.0440 -88.6260 294° West 370 426 17,900 2,040 Climbing FlightAware
07:12PM 42.0670 -88.7030 292° West 380 437 19,000 1,800 Climbing FlightAware
07:13PM 42.0680 -88.7840 271° West 385 443 20,100 1,920 Climbing FlightAware
07:13PM 42.0660 -88.8630 268° West 389 448 21,200 1,740 Climbing FlightAware
07:14PM 42.0630 -88.9480 267° West 399 459 22,100 1,620 Climbing FlightAware
07:15PM 42.0610 -89.0410 268° West 404 465 23,200 1,740 Climbing FlightAware
07:15PM 42.0600 -89.1310 269° West 408 470 24,200 1,560 Climbing FlightAware
07:16PM 42.0580 -89.2220 268° West 409 471 25,100 1,920 Climbing FlightAware
07:16PM 42.0570 -89.3020 269° West 398 458 26,400 1,680 Climbing FlightAware
07:17PM 42.0560 -89.3890 269° West 405 466 27,000 960 Climbing FlightAware
07:17PM 42.0540 -89.4820 268° West 411 473 27,600 900 Climbing FlightAware
07:18PM 42.0520 -89.5700 268° West 418 481 28,100 840 Climbing FlightAware
07:19PM 42.0510 -89.6630 269° West 424 488 28,600 900 Climbing FlightAware
07:19PM 42.0490 -89.7580 268° West 427 491 29,200 1,020 Climbing FlightAware
07:20PM 42.0470 -89.8410 268° West 427 491 29,800 1,320 Climbing FlightAware
07:20PM 42.0450 -89.9420 269° West 421 484 30,800 1,560 Climbing FlightAware
07:21PM 42.0440 -90.0200 269° West 415 478 31,600 1,020 Climbing FlightAware
07:22PM 42.0420 -90.1230 269° West 414 476 32,000 300 Climbing FlightAware
07:22PM 42.0410 -90.2150 269° West 413 475 32,000  Level FlightAware
07:23PM 42.0410 -90.3020 270° West 413 475 32,000 360 Level FlightAware
07:23PM 42.0400 -90.3870 269° West 417 480 32,400 1,020 Climbing FlightAware
07:24PM 42.0400 -90.4620 270° West 414 476 33,100 1,260 Climbing FlightAware
07:24PM 42.0400 -90.5710 270° West 410 472 34,000 1,260 Climbing FlightAware
07:25PM 42.0420 -90.6690 272° West 405 466 34,900 1,500 Climbing FlightAware
07:26PM 42.0470 -90.7650 274° West 394 453 35,900 900 Climbing FlightAware
07:26PM 42.0510 -90.8490 274° West 388 447 36,000 60 Climbing FlightAware
07:27PM 42.0560 -90.9490 274° West 385 443 36,000  Level FlightAware
07:28PM 42.0590 -91.0260 273° West 385 443 36,000  Level FlightAware
07:28PM 42.0620 -91.1070 273° West 385 443 36,000  Level FlightAware
07:29PM 42.0660 -91.2030 273° West 385 443 36,000  Level FlightAware
07:29PM 42.0690 -91.2790 273° West 386 444 36,000  Level FlightAware
07:30PM 42.0720 -91.3690 273° West 386 444 36,000  Level FlightAware
07:31PM 42.0750 -91.4530 273° West 389 448 36,000  Level FlightAware
07:31PM 42.0790 -91.5420 273° West 388 447 36,000  Level FlightAware
07:32PM 42.0810 -91.6130 272° West 382 440 36,000  Level FlightAware
07:32PM 42.0840 -91.7010 273° West 378 435 36,000  Level FlightAware
07:33PM 42.0870 -91.7870 273° West 376 433 36,000  Level FlightAware
07:33PM 42.0900 -91.8670 273° West 374 430 36,000  Level FlightAware
07:34PM 42.0930 -91.9490 273° West 371 427 36,000  Level FlightAware
07:35PM 42.0950 -92.0270 272° West 369 425 36,000  Level FlightAware
07:35PM 42.0980 -92.1110 273° West 367 422 36,000  Level FlightAware
07:36PM 42.1000 -92.1850 272° West 366 421 36,000  Level FlightAware
07:36PM 42.1030 -92.2640 273° West 364 419 36,000  Level FlightAware
07:37PM 42.1050 -92.3470 272° West 364 419 36,000  Level FlightAware
07:37PM 42.1070 -92.4210 272° West 363 418 36,000  Level FlightAware
07:38PM 42.1090 -92.4980 272° West 362 417 36,000  Level FlightAware
07:39PM 42.1120 -92.5820 273° West 362 417 36,000  Level FlightAware
07:39PM 42.1140 -92.6630 272° West 365 420 36,000  Level FlightAware
07:40PM 42.1160 -92.7440 272° West 376 433 36,000  Level FlightAware
07:40PM 42.1180 -92.8200 272° West 377 434 36,000  Level FlightAware
07:41PM 42.1200 -92.9060 272° West 377 434 36,000  Level FlightAware
07:41PM 42.1217 -92.9678 272° West 377 434 36,000  Level FlightAware ADS-B
07:42PM 42.1234 -93.0391 272° West 377 434 36,000  Level FlightAware ADS-B
07:43PM 42.1260 -93.1540 272° West 375 432 36,000  Level FlightAware
07:43PM 42.1280 -93.2300 272° West 374 430 36,000  Level FlightAware
07:44PM 42.1286 -93.2695 271° West 373 429 36,000  Level FlightAware ADS-B
07:44PM 42.1301 -93.3396 272° West 372 428 36,000  Level FlightAware ADS-B
07:45PM 42.1330 -93.4750 272° West 371 427 36,000  Level FlightAware
07:46PM 42.1346 -93.5704 271° West 369 425 36,000  Level FlightAware ADS-B
07:46PM 42.1359 -93.6391 271° West 368 423 36,000  Level FlightAware ADS-B
07:47PM 42.1372 -93.7085 271° West 368 423 36,000  Level FlightAware ADS-B
07:47PM 42.1390 -93.7930 272° West 367 422 36,000  Level FlightAware
07:48PM 42.1399 -93.8636 271° West 367 422 36,000  Level FlightAware ADS-B
07:48PM 42.1410 -93.9360 271° West 366 421 36,000  Level FlightAware ADS-B
07:49PM 42.1420 -94.0047 271° West 366 421 36,000  Level FlightAware ADS-B
07:50PM 42.1440 -94.1190 271° West 366 421 36,000  Level FlightAware
07:50PM 42.1442 -94.1629 270° West 367 422 36,000  Level FlightAware ADS-B
07:51PM 42.1453 -94.2440 271° West 369 425 36,000  Level FlightAware ADS-B
07:51PM 42.1470 -94.3510 271° West 370 426 36,000  Level FlightAware
07:52PM 42.1480 -94.4300 271° West 371 427 36,000  Level FlightAware
07:52PM 42.1480 -94.4617 270° West 371 427 36,000  Level FlightAware ADS-B
07:53PM 42.1488 -94.5332 271° West 371 427 36,000  Level FlightAware ADS-B
07:53PM 42.1495 -94.6033 271° West 372 428 36,000  Level FlightAware ADS-B
07:54PM 42.1500 -94.6710 271° West 372 428 36,000  Level FlightAware
07:54PM 42.1510 -94.7637 271° West 372 428 36,000  Level FlightAware ADS-B
07:55PM 42.1516 -94.8340 271° West 372 428 36,000  Level FlightAware ADS-B
07:56PM 42.1520 -94.9170 270° West 372 428 36,000  Level FlightAware
07:56PM 42.1530 -95.0000 271° West 373 429 36,000  Level FlightAware
07:57PM 42.1531 -95.0631 270° West 373 429 36,000  Level FlightAware ADS-B
07:57PM 42.1535 -95.1349 270° West 373 429 36,000  Level FlightAware ADS-B
07:58PM 42.1539 -95.2051 270° West 373 429 36,000  Level FlightAware ADS-B
07:58PM 42.1540 -95.3220 270° West 373 429 36,000  Level FlightAware
07:59PM 42.1545 -95.3675 271° West 373 429 36,000  Level FlightAware ADS-B
07:59PM 42.1547 -95.4377 270° West 373 429 36,000  Level FlightAware ADS-B
08:00PM 42.1549 -95.5083 270° West 374 430 36,000  Level FlightAware ADS-B
08:01PM 42.1551 -95.6715 270° West 374 430 36,000  Level FlightAware ADS-B
08:02PM 42.1551 -95.7455 270° West 375 432 36,000  Level FlightAware ADS-B
08:02PM 42.1551 -95.8168 270° West 375 432 36,000  Level FlightAware ADS-B
08:03PM 42.1549 -95.9744 270° West 374 430 36,000  Level FlightAware ADS-B
08:04PM 42.1547 -96.0461 270° West 373 429 36,000  Level FlightAware ADS-B
08:04PM 42.1544 -96.1158 270° West 373 429 36,000  Level FlightAware ADS-B
08:05PM 42.1539 -96.2776 270° West 373 429 36,000  Level FlightAware ADS-B
08:06PM 42.1535 -96.3584 270° West 373 429 36,000  Level FlightAware ADS-B
08:08PM 42.1520 -96.5795 270° West 375 432 36,000  Level FlightAware ADS-B
08:08PM 42.1514 -96.6497 269° West 376 433 36,000  Level FlightAware ADS-B
08:09PM 42.1509 -96.7207 269° West 376 433 36,000  Level FlightAware ADS-B
08:10PM 42.1493 -96.8901 269° West 379 436 36,000  Level FlightAware ADS-B
08:10PM 42.1486 -96.9639 269° West 380 437 36,000  Level FlightAware ADS-B
08:11PM 42.1477 -97.0365 269° West 381 438 36,000  Level FlightAware ADS-B
08:12PM 42.1456 -97.2093 269° West 382 440 36,000  Level FlightAware ADS-B
08:12PM 42.1448 -97.2837 269° West 383 441 36,000  Level FlightAware ADS-B
08:13PM 42.1438 -97.3587 269° West 384 442 36,000  Level FlightAware ADS-B
08:14PM 42.1415 -97.5178 269° West 386 444 36,000  Level FlightAware ADS-B
08:15PM 42.1394 -97.6394 269° West 387 445 36,000 120 Level FlightAware ADS-B
08:16PM 42.1360 -97.8350 269° West 385 443 36,300 480 Climbing FlightAware ADS-B
08:17PM 42.1343 -97.9308 269° West 385 443 37,000 720 Climbing FlightAware ADS-B
08:19PM 42.1299 -98.1487 269° West 380 437 38,000 480 Climbing FlightAware ADS-B
08:19PM 42.1284 -98.2214 268° West 381 438 38,000  Level FlightAware ADS-B
08:21PM 42.1229 -98.4618 268° West 377 434 38,000  Level FlightAware ADS-B
08:21PM 42.1211 -98.5350 268° West 378 435 38,000  Level FlightAware ADS-B
08:22PM 42.1193 -98.6095 268° West 379 436 38,000  Level FlightAware ADS-B
08:23PM 42.1155 -98.7601 268° West 380 437 38,000  Level FlightAware ADS-B
08:26PM 42.1043 -99.1610 268° West 383 441 38,000  Level FlightAware ADS-B
08:27PM 42.0970 -99.3958 268° West 386 444 38,000  Level FlightAware ADS-B
08:28PM 42.0946 -99.4698 268° West 387 445 38,000  Level FlightAware ADS-B
08:29PM 42.0872 -99.6919 268° West 389 448 38,000  Level FlightAware ADS-B
08:31PM 42.0813 -99.8605 267° West 389 448 38,000  Level FlightAware ADS-B
08:31PM 42.0767 -99.9628 267° West 386 444 38,000  Level Denver Center
08:32PM 42.0714 -100.1258 268° West 391 450 38,000  Level Denver Center
08:33PM 42.0667 -100.2425 267° West 392 451 38,000  Level Denver Center
08:35PM 42.0600 -100.4281 267° West 392 451 38,000  Level Denver Center
08:36PM 42.0542 -100.5664 267° West 389 448 38,000  Level Denver Center
08:37PM 42.0467 -100.7300 267° West 391 450 38,000  Level Denver Center
08:38PM 42.0417 -100.8697 267° West 392 451 38,000  Level Denver Center
08:39PM 42.0339 -101.0356 266° West 399 459 38,000  Level Denver Center
08:44PM 41.9940 -101.8300 266° West 407 468 38,000  Level FlightAware
08:45PM 41.9880 -101.9210 265° West 407 468 38,000  Level FlightAware
08:45PM 41.9830 -101.9980 265° West 407 468 38,000  Level FlightAware
08:46PM 41.9780 -102.1250 267° West 407 468 38,000  Level FlightAware
08:47PM 41.9720 -102.2090 265° West 407 468 38,000  Level FlightAware
08:47PM 41.9670 -102.2860 265° West 407 468 38,000  Level FlightAware
08:48PM 41.9610 -102.4150 266° West 409 471 38,000  Level FlightAware
08:48PM 41.9560 -102.5150 266° West 413 475 38,000  Level FlightAware
08:49PM 41.9500 -102.6050 265° West 413 475 38,000  Level FlightAware
08:50PM 41.9450 -102.6830 265° West 413 475 38,000  Level FlightAware
08:50PM 41.9380 -102.8050 266° West 419 482 38,000  Level FlightAware
08:51PM 41.9320 -102.8980 265° West 421 484 38,000  Level FlightAware
08:51PM 41.9270 -102.9750 265° West 421 484 38,000  Level FlightAware
08:52PM 41.9210 -103.0760 265° West 422 486 38,000  Level FlightAware
08:53PM 41.9150 -103.1710 265° West 422 486 38,000  Level FlightAware
08:53PM 41.9090 -103.2650 265° West 422 486 38,000  Level FlightAware
08:54PM 41.9030 -103.3490 265° West 422 486 38,000  Level FlightAware
08:54PM 41.8960 -103.4470 265° West 421 484 38,000  Level FlightAware
08:55PM 41.8930 -103.5300 267° West 421 484 38,000  Level FlightAware
08:56PM 41.8900 -103.6290 268° West 420 483 38,000  Level FlightAware
08:56PM 41.8870 -103.7230 268° West 418 481 38,000  Level FlightAware
08:57PM 41.8840 -103.8060 267° West 418 481 38,000  Level FlightAware
08:57PM 41.8810 -103.8990 268° West 417 480 38,000  Level FlightAware
08:58PM 41.8770 -103.9900 267° West 417 480 38,000  Level FlightAware
08:59PM 41.8740 -104.0840 268° West 418 481 38,000  Level FlightAware
08:59PM 41.8710 -104.1750 267° West 418 481 38,000  Level FlightAware
09:00PM 41.8670 -104.2750 267° West 419 482 38,000  Level FlightAware
09:00PM 41.8640 -104.3640 267° West 419 482 38,000  Level FlightAware
09:01PM 41.8600 -104.4620 267° West 419 482 38,000  Level FlightAware
09:02PM 41.8560 -104.5540 267° West 420 483 38,000  Level FlightAware
09:02PM 41.8530 -104.6470 268° West 421 484 38,000  Level FlightAware
09:03PM 41.8490 -104.7370 267° West 421 484 38,000  Level FlightAware
09:03PM 41.8440 -104.8460 267° West 420 483 38,000  Level FlightAware
09:04PM 41.8410 -104.9290 267° West 421 484 38,000  Level FlightAware
09:05PM 41.8360 -105.0180 266° West 421 484 38,000  Level FlightAware
09:05PM 41.8300 -105.1590 267° West 422 486 38,000  Level FlightAware
09:06PM 41.8270 -105.2410 267° West 422 486 38,000  Level FlightAware
09:07PM 41.8220 -105.3370 266° West 423 487 38,000  Level FlightAware
09:07PM 41.8170 -105.4440 266° West 423 487 38,000  Level FlightAware
09:08PM 41.8130 -105.5270 266° West 423 487 38,000  Level FlightAware
09:09PM 41.8070 -105.6570 267° West 426 490 38,000  Level FlightAware
09:09PM 41.8030 -105.7390 266° West 428 493 38,000  Level FlightAware
09:10PM 41.7970 -105.8390 265° West 431 496 38,000  Level FlightAware
09:10PM 41.7930 -105.9250 266° West 433 498 38,000  Level FlightAware
09:11PM 41.7900 -105.9830 266° West 433 498 38,000  Level FlightAware
09:11PM 41.7830 -106.1140 266° West 435 501 38,000  Level FlightAware
09:12PM 41.7780 -106.1980 265° West 436 502 38,000  Level FlightAware
09:13PM 41.7730 -106.3000 266° West 437 503 38,000  Level FlightAware
09:13PM 41.7680 -106.3930 266° West 437 503 38,000  Level FlightAware
09:14PM 41.7630 -106.4710 265° West 437 503 38,000  Level FlightAware
09:14PM 41.7570 -106.5600 265° West 437 503 38,000  Level FlightAware
09:15PM 41.7500 -106.7030 266° West 428 493 38,000  Level FlightAware
09:16PM 41.7440 -106.7890 265° West 428 493 38,000  Level FlightAware
09:16PM 41.7390 -106.8700 265° West 428 493 38,000  Level FlightAware
09:17PM 41.7340 -106.9500 265° West 428 493 38,000  Level FlightAware
09:18PM 41.7290 -107.0310 265° West 428 493 38,000  Level FlightAware
09:18PM 41.7230 -107.1120 264° West 428 493 38,000  Level FlightAware
09:19PM 41.7180 -107.1930 265° West 428 493 38,000  Level FlightAware
09:19PM 41.7130 -107.2740 265° West 428 493 38,000  Level FlightAware
09:20PM 41.7070 -107.3550 264° West 428 493 38,000  Level FlightAware
09:21PM 41.7020 -107.4360 265° West 428 493 38,000  Level FlightAware
09:21PM 41.6970 -107.5120 265° West 428 493 38,000  Level FlightAware
09:22PM 41.6920 -107.5950 265° West 428 493 38,000  Level FlightAware
09:22PM 41.6860 -107.6780 264° West 428 493 38,000  Level FlightAware
09:23PM 41.6810 -107.7590 265° West 428 493 38,000  Level FlightAware
09:24PM 41.6760 -107.8400 265° West 428 493 38,000  Level FlightAware
09:24PM 41.6700 -107.9210 264° West 428 493 38,000  Level FlightAware
09:25PM 41.6650 -108.0010 265° West 428 493 38,000  Level FlightAware
09:26PM 41.6411 -108.3578 265° West 435 501 38,000  Level Denver Center
09:26PM 41.6322 -108.4631 264° West 440 506 38,000  Level Salt Lake Center
09:27PM 41.6219 -108.6172 265° West 439 505 38,000  Level Salt Lake Center
09:28PM 41.6081 -108.7969 264° West 437 503 38,000  Level Salt Lake Center
09:29PM 41.5964 -108.9506 264° West 437 503 38,000  Level Salt Lake Center
09:30PM 41.5892 -109.1294 267° West 441 507 38,000  Level Salt Lake Center
09:36PM 41.6240 -110.0330 267° West 449 517 38,000  Level FlightAware
09:36PM 41.6340 -110.1310 278° West 452 520 38,000  Level FlightAware
09:37PM 41.6450 -110.2240 279° West 456 525 38,000  Level FlightAware
09:38PM 41.6570 -110.3250 279° West 457 526 38,000  Level FlightAware
09:38PM 41.6690 -110.4230 279° West 457 526 38,000  Level FlightAware
09:39PM 41.6790 -110.5110 279° West 457 526 38,000  Level FlightAware
09:40PM 41.6900 -110.5960 280° West 457 526 38,000  Level FlightAware
09:40PM 41.6976 -110.6750 277° West 459 528 38,000  Level FlightAware ADS-B
09:40PM 41.7044 -110.7450 277° West 458 527 38,000  Level FlightAware ADS-B
09:41PM 41.7151 -110.8580 277° West 456 525 38,000  Level FlightAware ADS-B
09:41PM 41.7250 -110.9680 277° West 455 524 38,000  Level FlightAware
09:42PM 41.7314 -111.0460 276° West 454 522 38,000  Level FlightAware ADS-B
09:42PM 41.7365 -111.1350 274° West 453 521 38,000  Level FlightAware ADS-B
09:43PM 41.7391 -111.2220 272° West 451 519 38,000  Level FlightAware ADS-B
09:44PM 41.7390 -111.3570 270° West 449 517 38,000  Level FlightAware
09:44PM 41.7389 -111.4120 270° West 449 517 38,000  Level FlightAware ADS-B
09:45PM 41.7369 -111.5020 268° West 448 516 38,000  Level FlightAware ADS-B
09:46PM 41.7320 -111.6580 268° West 453 521 38,000  Level FlightAware
09:46PM 41.7270 -111.7460 266° West 453 521 38,000  Level FlightAware
09:46PM 41.7259 -111.7580 263° West 454 522 38,000  Level FlightAware ADS-B
09:47PM 41.7187 -111.8740 265° West 453 521 38,000  Level FlightAware ADS-B
09:47PM 41.7126 -111.9640 265° West 454 522 38,000  Level FlightAware ADS-B
09:49PM 41.6926 -112.1480 262° West 452 520 38,000  Level FlightAware ADS-B
09:49PM 41.6724 -112.2540 256° West 454 522 38,000  Level FlightAware ADS-B
09:50PM 41.6400 -112.4230 256° West 460 529 38,000  Level FlightAware
09:51PM 41.6205 -112.5270 256° West 461 531 38,000  Level FlightAware ADS-B
09:51PM 41.6032 -112.6180 256° West 463 533 38,000  Level FlightAware ADS-B
09:52PM 41.5850 -112.7140 256° West 464 534 38,000  Level FlightAware
09:53PM 41.5660 -112.8140 256° West 464 534 38,000  Level FlightAware
09:53PM 41.5623 -112.8320 255° West 465 535 38,000  Level FlightAware ADS-B
09:53PM 41.5373 -112.9610 256° West 466 536 38,000  Level FlightAware ADS-B
09:54PM 41.5208 -113.0460 255° West 466 536 38,000  Level FlightAware ADS-B
09:55PM 41.4900 -113.2020 255° West 463 533 38,000  Level FlightAware
09:55PM 41.4845 -113.2320 256° West 462 532 38,000  Level FlightAware ADS-B
09:56PM 41.4678 -113.3160 255° West 462 532 38,000  Level FlightAware ADS-B
09:56PM 41.4508 -113.4020 255° West 462 532 38,000  Level FlightAware ADS-B
09:57PM 41.4340 -113.4850 255° West 461 531 38,000  Level FlightAware
09:57PM 41.4107 -113.6030 255° West 460 529 38,000  Level FlightAware ADS-B
09:58PM 41.3941 -113.6860 255° West 459 528 38,000  Level FlightAware ADS-B
09:59PM 41.3750 -113.7830 255° West 459 528 38,000  Level FlightAware
09:59PM 41.3376 -113.9450 253° West 458 527 38,000  Level FlightAware ADS-B
10:00PM 41.3174 -114.0280 252° West 459 528 38,000  Level FlightAware ADS-B
10:00PM 41.2973 -114.1110 252° West 461 531 38,000  Level FlightAware ADS-B
10:01PM 41.2790 -114.1850 252° West 458 527 38,000  Level FlightAware
10:02PM 41.2514 -114.2990 252° West 462 532 38,000  Level FlightAware ADS-B
10:02PM 41.2313 -114.3800 252° West 464 534 38,000  Level FlightAware ADS-B
10:03PM 41.2109 -114.4620 252° West 464 534 38,000  Level FlightAware ADS-B
10:04PM 41.1990 -114.5130 253° West 458 527 38,000  Level FlightAware
10:04PM 41.1641 -114.6510 251° West 467 537 38,000  Level FlightAware ADS-B
10:04PM 41.1431 -114.7340 251° West 468 539 38,000  Level FlightAware ADS-B
10:05PM 41.1590 -114.6770 70° East 458 527 38,000  Level FlightAware
10:05PM 41.1390 -114.7580 252° West 458 527 38,000  Level FlightAware
10:06PM 41.1190 -114.8400 252° West 458 527 38,000  Level FlightAware
10:07PM 41.0980 -114.9220 251° West 458 527 38,000  Level FlightAware
10:07PM 41.0318 -115.1740 251° West 471 542 38,000  Level FlightAware ADS-B
10:08PM 41.0580 -115.0860 68° East 458 527 38,000  Level FlightAware
10:08PM 40.9841 -115.3600 250° West 473 544 38,000  Level FlightAware ADS-B
10:09PM 40.9622 -115.4450 251° West 474 545 38,000  Level FlightAware ADS-B
10:09PM 40.9431 -115.5117 251° West 468 539 38,000  Level Salt Lake Center
10:10PM 40.9017 -115.6703 251° West 474 545 38,000  Level Salt Lake Center
10:11PM 40.8558 -115.8539 252° West 473 544 38,000  Level Salt Lake Center
10:12PM 40.8161 -116.0103 251° West 471 542 38,000  Level Salt Lake Center
10:13PM 40.7653 -116.1922 250° West 472 543 38,000  Level Salt Lake Center
10:14PM 40.7233 -116.3494 251° West 475 547 38,000  Level Salt Lake Center
10:15PM 40.6831 -116.5047 251° West 472 543 38,000  Level Salt Lake Center
10:16PM 40.6339 -116.6858 250° West 472 543 38,000  Level Salt Lake Center
10:23PM 40.3410 -117.7120 250° West 469 540 38,000 -120 Level FlightAware
10:23PM 40.2950 -117.7970 235° Southwest 472 543 37,500 -1,020 Descending FlightAware
10:24PM 40.2490 -117.8800 234° Southwest 476 548 36,800 -1,320 Descending FlightAware
10:25PM 40.1900 -117.9890 235° Southwest 466 536 35,700 -1,440 Descending FlightAware
10:25PM 40.1420 -118.0760 234° Southwest 467 537 34,800 -1,500 Descending FlightAware
10:26PM 40.1010 -118.1500 234° Southwest 470 541 34,000 -1,500 Descending FlightAware
10:26PM 40.0540 -118.2360 234° Southwest 474 545 33,100 -1,680 Descending FlightAware
10:27PM 40.0130 -118.3110 234° Southwest 473 544 32,100 -1,980 Descending FlightAware
10:28PM 39.9670 -118.3930 234° Southwest 474 545 30,900 -2,160 Descending FlightAware
10:28PM 39.9250 -118.4690 234° Southwest 477 549 29,700 -2,220 Descending FlightAware
10:29PM 39.8730 -118.5620 234° Southwest 482 555 28,300 -2,220 Descending FlightAware
10:29PM 39.8270 -118.6440 234° Southwest 474 545 26,900 -2,340 Descending FlightAware
10:30PM 39.7860 -118.7180 234° Southwest 468 539 25,700 -2,220 Descending FlightAware
10:30PM 39.7400 -118.7990 234° Southwest 460 529 24,400 -2,280 Descending FlightAware
10:31PM 39.6950 -118.8790 234° Southwest 453 521 23,000 -2,400 Descending FlightAware
10:32PM 39.6560 -118.9500 235° Southwest 446 513 21,700 -2,520 Descending FlightAware
10:32PM 39.6120 -119.0260 233° Southwest 438 504 20,200 -2,400 Descending FlightAware
10:33PM 39.5690 -119.1020 234° Southwest 432 497 18,800 -2,280 Descending FlightAware
10:33PM 39.5280 -119.1750 234° Southwest 420 483 17,500 -2,160 Descending FlightAware
10:34PM 39.4910 -119.2400 234° Southwest 405 466 16,400 -1,980 Descending FlightAware
10:35PM 39.4530 -119.3070 234° Southwest 389 448 15,300 -1,740 Descending FlightAware
10:35PM 39.4150 -119.3730 233° Southwest 370 426 14,400 -1,620 Descending FlightAware
10:36PM 39.3790 -119.4350 233° Southwest 354 407 13,400 -1,620 Descending FlightAware
10:36PM 39.3480 -119.4890 233° Southwest 341 392 12,600 -1,440 Descending FlightAware
10:37PM 39.3150 -119.5460 233° Southwest 324 373 11,800 -1,260 Descending FlightAware
10:38PM 39.2820 -119.6040 234° Southwest 311 358 11,100 -1,080 Descending FlightAware
10:38PM 39.2710 -119.6170 222° Southwest 309 356 10,900 -600 Descending FlightAware
10:38PM 39.2610 -119.6250 212° Southwest 304 350 10,900  Level FlightAware
10:38PM 39.2140 -119.6410 195° South 278 320 10,900 -480 Level FlightAware
10:39PM 39.1800 -119.6550 198° South 274 315 10,400 -1,080 Descending FlightAware
10:39PM 39.1680 -119.6680 220° Southwest 271 312 10,200 -1,080 Descending FlightAware
10:39PM 39.1600 -119.6900 245° Southwest 262 302 9,900 -1,200 Descending FlightAware
10:40PM 39.1580 -119.7200 265° West 253 291 9,500 -1,200 Descending FlightAware
10:40PM 39.1650 -119.7460 289° West 240 276 9,100 -1,080 Descending FlightAware
10:40PM 39.1720 -119.7540 318° Northwest 230 265 9,000 -240 Descending FlightAware
10:41PM 39.1900 -119.7670 331° Northwest 219 252 9,000  Level FlightAware
10:41PM 39.1980 -119.7690 349° North 219 252 9,000  Level FlightAware
10:41PM 39.2170 -119.7700 358° North 220 253 9,000  Level FlightAware
10:41PM 39.2300 -119.7710 357° North 223 257 9,000  Level FlightAware
10:42PM 39.2560 -119.7700 North 224 258 9,000 -480 Level FlightAware
10:42PM 39.2870 -119.7700 360° North 209 241 8,600 -1,080 Descending FlightAware
10:43PM 39.3210 -119.7700 360° North 194 223 7,800 -1,200 Descending FlightAware
10:43PM 39.3300 -119.7700 360° North 189 217 7,700 -1,020 Descending FlightAware
10:43PM 39.3540 -119.7700 360° North 180 207 7,200 -1,140 Descending FlightAware
10:44PM 39.3620 -119.7700 360° North 175 201 7,000 -1,080 Descending FlightAware
10:44PM 39.3810 -119.7700 360° North 167 192 6,600 -1,080 Descending FlightAware
10:44PM 39.3980 -119.7700 360° North 164 189 6,200 -1,140 Descending FlightAware
10:45PM 39.4100 -119.7700 360° North 161 185 5,900 -1,020 Descending FlightAware
10:45PM 39.4340 -119.7690 North 161 185 5,400 -960 Descending FlightAware
10:45PM 39.4480 -119.7690 360° North 163 188 5,100 -900 Descending FlightAware
10:46PM 39.4630 -119.7690 360° North 164 189 4,800 -900 Descending FlightAware
10:46PM 39.4850 -119.7690 360° North 164 189 4,400 -540 Descending FlightAware
10:47PM 39.5040 -119.7690 360° North 164 189 4,300 -240 Descending FlightAware